Kezdőlap
METAR-TAF:

METAR-TAF

Repülőterek :

Szatmárnémeti, Románia

földrajzi szélesség: 47-48N, földrajzi hosszúság: 022-53E, magasság: 123 m

Jelenlegi meteorológiai megfigyelések

A jelentés 34 perccel ezelõtt készült, 09:30 UTC
Kelet-délkeleti szél 6 kt, kelet-északkeleti és déli között változik
Hőmérséklet 26°C
Páratartalom 51%
Légköri nyomás 1021 hPa
Látótávolság 10 km, vagy több
Kevés felhő 4100 lábon

METAR: LRSM 280930Z 12006KT 070V170 9999 FEW041 26/15 Q1021

Idő: 13:04 (10:04 UTC)


TAF: hiányzik

Meteorológiai megfigyelések és előrejelzések több, mint 4000 repülőtéren (METAR és TAF jelentéseket).

A térképen piros és sárga pontok jelzik az elérhető meteorológiai állomásokat.

Mozgassa az egeret a pont fölött, hogy megjelenjen az állomás neve.

Azután kattintson az időjárási megfigyelések és előrejelzések megtekintéséhez.

A térkép megváltoztatása: kattintson a fekete keresztel jelölt zöld gombra ráközelítéshez, a vonallal jelölt zöld gombra távolításhoz, vagy a zöld nyilakra a szomszédos térképek eléréséhez.


METAR-TAF: